Flight Track Log - Related Links

Times and Time Zones

All times are in EDT time to prevent confusion due to time zone crossing. See the N71ST flight status page for this flight to view local times or setup timezone preferences in your user account.

Time Position Orientation Groundspeed Altitude Reporting Facility
EDT Latitude Longitude Course Direction KTS MPH feet Rate Location/Type
Fri 10:46:32 AM 42.4833 -71.2833 20° North 92 106 900  Level KA90
Fri 10:47:57 AM 42.5167 -71.2667 20° North 86 99 2,400 1,073 Climbing KA90
Fri 10:49:03 AM 42.5333 -71.2500 36° Northeast 98 113 3,600 818 Climbing KA90
Fri 10:50:09 AM 42.5667 -71.2667 340° North 118 136 4,200 252 Climbing KA90
Fri 10:51:02 AM 42.6000 -71.2833 340° North 143 165 4,100 -95 Descending KA90
Fri 10:52:15 AM 42.6500 -71.3000 346° North 136 157 4,000  Descending KA90
Fri 10:53:09 AM 42.6833 -71.3000 360° North 130 150 4,100 100 Climbing KA90
Fri 10:54:15 AM 42.7167 -71.3167 340° North 137 158 4,200  Climbing KA90
Fri 10:55:09 AM 42.7500 -71.3167 360° North 137 158 4,100 -56 Descending KA90
Fri 10:56:03 AM 42.7833 -71.3167 360° North 149 171 4,100 -53 Level KA90
Fri 10:57:03 AM 42.8167 -71.3333 340° North 154 177 4,000 -48 Descending KA90
Fri 10:58:09 AM 42.8667 -71.3500 346° North 133 153 4,000 -143 Level KA90
Fri 10:59:09 AM 42.9000 -71.3667 340° North 137 158 3,700 -316 Descending KA90
Fri 11:00:03 AM 42.9333 -71.3833 340° North 144 166 3,400 -316 Descending KA90
Fri 11:01:03 AM 42.9667 -71.4000 340° North 139 160 3,100 -143 Descending KA90
Fri 11:02:09 AM 43.0000 -71.4167 340° North 140 161 3,100 -238 Level KA90
Fri 11:03:09 AM 43.0500 -71.4333 346° North 141 162 2,600 -500 Descending KA90
Fri 11:05:00 AM 43.1203 -71.4614 344° North  Level FlightAware Approximate
Fri 11:12:00 AM 43.2000 -71.5000 340° North  Level FlightAware Approximate
Fri 11:13:00 AM 43.2027 -71.5023 340° North  Level Estimated

Login

Don't have an account? Register now (free) for customized features, flight alerts, and more!